createdAt,value
2023-12-09T00:00:24.144Z,315.00
2023-12-09T00:01:24.064Z,315.00
2023-12-09T00:02:24.121Z,315.00
2023-12-09T00:03:24.106Z,315.00
2023-12-09T00:04:24.098Z,315.00
2023-12-09T00:05:24.035Z,315.00
2023-12-09T00:06:24.045Z,315.00
2023-12-09T00:07:24.024Z,315.00
2023-12-09T00:08:24.033Z,315.00
2023-12-09T00:09:24.095Z,315.00
2023-12-09T00:10:24.036Z,315.00
2023-12-09T00:11:24.026Z,315.00
2023-12-09T00:12:24.491Z,315.00
2023-12-09T00:13:24.020Z,315.00
2023-12-09T00:14:24.033Z,315.00
2023-12-09T00:15:24.235Z,315.00
2023-12-09T00:16:24.156Z,315.00
2023-12-09T00:17:24.185Z,315.00
2023-12-09T00:18:24.315Z,315.00
2023-12-09T00:19:24.377Z,315.00
2023-12-09T00:20:24.242Z,315.00
2023-12-09T00:21:24.331Z,315.00
2023-12-09T00:22:24.525Z,315.00
2023-12-09T00:23:24.282Z,315.00
2023-12-09T00:24:24.321Z,315.00
2023-12-09T00:25:24.269Z,315.00
2023-12-09T00:26:24.327Z,315.00
2023-12-09T00:27:24.354Z,315.00
2023-12-09T00:28:24.352Z,315.00
2023-12-09T00:29:24.441Z,315.00
2023-12-09T00:30:24.435Z,315.00
2023-12-09T00:31:24.362Z,315.00
2023-12-09T00:32:24.776Z,315.00
2023-12-09T00:33:24.624Z,315.00
2023-12-09T00:34:24.492Z,315.00
2023-12-09T00:35:24.404Z,315.00
2023-12-09T00:36:24.485Z,315.00
2023-12-09T00:37:24.435Z,315.00
2023-12-09T00:38:24.443Z,315.00
2023-12-09T00:39:24.528Z,315.00
2023-12-09T00:40:24.456Z,315.00
2023-12-09T00:41:24.456Z,315.00
2023-12-09T00:42:24.699Z,315.00
2023-12-09T00:43:24.559Z,315.00
2023-12-09T00:44:24.507Z,315.00
2023-12-09T00:45:24.540Z,315.00
2023-12-09T00:46:24.527Z,315.00
2023-12-09T00:47:24.562Z,315.00
2023-12-09T00:48:24.728Z,315.00
2023-12-09T00:49:24.633Z,315.00
2023-12-09T00:50:24.578Z,315.00
2023-12-09T00:51:24.667Z,315.00
2023-12-09T00:52:24.893Z,275.59
2023-12-09T00:53:24.637Z,315.00
2023-12-09T00:54:24.702Z,315.00
2023-12-09T00:55:24.617Z,315.00
2023-12-09T00:56:33.773Z,315.00
2023-12-09T00:57:24.651Z,315.00
2023-12-09T00:58:24.660Z,315.00
2023-12-09T00:59:24.675Z,315.00
2023-12-09T01:00:24.682Z,315.00
2023-12-09T01:01:24.682Z,315.00
2023-12-09T01:02:24.972Z,315.00
2023-12-09T01:03:24.718Z,315.00
2023-12-09T01:04:24.756Z,315.00
2023-12-09T01:05:24.641Z,315.00
2023-12-09T01:06:24.756Z,315.00
2023-12-09T01:07:24.649Z,315.00
2023-12-09T01:08:24.676Z,315.00
2023-12-09T01:09:24.741Z,315.00
2023-12-09T01:10:24.746Z,315.00
2023-12-09T01:11:24.664Z,315.00
2023-12-09T01:12:24.980Z,315.00
2023-12-09T01:13:24.836Z,315.00
2023-12-09T01:14:24.732Z,315.00
2023-12-09T01:15:24.674Z,315.00
2023-12-09T01:16:24.697Z,355.46
2023-12-09T01:17:24.654Z,0.00
2023-12-09T01:18:24.938Z,0.00
2023-12-09T01:19:24.703Z,0.00
2023-12-09T01:20:24.676Z,0.00
2023-12-09T01:21:24.703Z,0.00
2023-12-09T01:22:25.043Z,0.00
2023-12-09T01:23:24.702Z,0.00
2023-12-09T01:24:24.737Z,0.00
2023-12-09T01:25:24.673Z,0.00
2023-12-09T01:26:24.657Z,0.00
2023-12-09T01:27:24.718Z,0.00
2023-12-09T01:28:24.730Z,0.00
2023-12-09T01:29:24.704Z,0.00
2023-12-09T01:30:24.789Z,0.00
2023-12-09T01:31:24.706Z,0.00
2023-12-09T01:32:24.862Z,0.00
2023-12-09T01:33:24.822Z,0.00
2023-12-09T01:34:24.806Z,0.00
2023-12-09T01:35:24.681Z,0.00
2023-12-09T01:36:24.720Z,357.02
2023-12-09T01:37:24.665Z,315.00
2023-12-09T01:38:24.714Z,315.00
2023-12-09T01:39:24.754Z,315.00
2023-12-09T01:40:24.740Z,315.00
2023-12-09T01:41:24.730Z,315.00
2023-12-09T01:42:25.107Z,315.00
2023-12-09T01:43:24.931Z,315.00
2023-12-09T01:44:24.776Z,315.00
2023-12-09T01:45:24.844Z,315.00
2023-12-09T01:46:24.786Z,315.00
2023-12-09T01:47:24.812Z,315.00
2023-12-09T01:48:25.150Z,315.00
2023-12-09T01:49:25.005Z,319.40
2023-12-09T01:50:25.014Z,315.00
2023-12-09T01:51:24.859Z,315.00
2023-12-09T01:52:24.996Z,315.00
2023-12-09T01:53:24.898Z,315.00
2023-12-09T01:54:24.936Z,315.00
2023-12-09T01:55:24.890Z,315.00
2023-12-09T01:56:24.917Z,315.00
2023-12-09T01:57:24.959Z,236.69
2023-12-09T01:58:24.955Z,225.00
2023-12-09T01:59:24.991Z,225.00
2023-12-09T02:00:25.009Z,225.00
2023-12-09T02:01:24.969Z,225.00
2023-12-09T02:02:25.272Z,225.00
2023-12-09T02:03:25.079Z,225.00
2023-12-09T02:04:25.047Z,225.00
2023-12-09T02:05:25.036Z,225.00
2023-12-09T02:06:25.049Z,225.00
2023-12-09T02:07:25.039Z,225.00
2023-12-09T02:08:25.045Z,225.00
2023-12-09T02:09:25.133Z,225.00
2023-12-09T02:10:25.115Z,225.00
2023-12-09T02:11:25.102Z,225.00
2023-12-09T02:12:25.353Z,225.00
2023-12-09T02:13:25.132Z,225.00
2023-12-09T02:14:25.187Z,225.00
2023-12-09T02:15:25.192Z,225.00
2023-12-09T02:16:25.175Z,225.00
2023-12-09T02:17:25.285Z,225.00
2023-12-09T02:18:25.214Z,225.00
2023-12-09T02:19:25.224Z,225.00
2023-12-09T02:20:25.204Z,225.00
2023-12-09T02:21:25.232Z,225.00
2023-12-09T02:22:25.456Z,225.00
2023-12-09T02:23:25.222Z,225.00
2023-12-09T02:26:25.298Z,225.00
2023-12-09T02:27:25.363Z,225.00
2023-12-09T02:28:25.292Z,225.00
2023-12-09T02:29:25.317Z,225.00
2023-12-09T02:32:25.607Z,225.00
2023-12-09T02:33:25.364Z,265.76
2023-12-09T02:34:25.384Z,315.00
2023-12-09T02:35:25.285Z,315.00
2023-12-09T02:37:25.312Z,315.00
2023-12-09T02:38:25.318Z,315.00
2023-12-09T02:39:25.396Z,315.00
2023-12-09T02:40:25.308Z,315.00
2023-12-09T02:42:25.567Z,225.00
2023-12-09T02:43:25.290Z,216.29
2023-12-09T02:44:25.336Z,315.00
2023-12-09T02:45:25.345Z,315.00
2023-12-09T02:47:25.323Z,315.00
2023-12-09T02:48:25.437Z,315.00
2023-12-09T02:49:25.381Z,315.00
2023-12-09T02:50:25.348Z,315.00
2023-12-09T02:53:25.329Z,315.00
2023-12-09T02:54:25.353Z,315.00
2023-12-09T02:55:25.334Z,315.00
2023-12-09T02:57:25.340Z,315.00
2023-12-09T02:58:25.298Z,315.00
2023-12-09T02:59:25.299Z,315.00
2023-12-09T03:00:25.378Z,315.00
2023-12-09T03:02:25.681Z,315.00
2023-12-09T03:03:25.429Z,315.00
2023-12-09T03:04:25.356Z,315.00
2023-12-09T03:05:25.334Z,315.00
2023-12-09T03:08:25.345Z,315.00
2023-12-09T03:09:25.356Z,315.00
2023-12-09T03:10:25.320Z,315.00
2023-12-09T03:12:25.607Z,315.00
2023-12-09T03:13:25.341Z,315.00
2023-12-09T03:14:25.353Z,315.00
2023-12-09T03:15:25.374Z,315.00
2023-12-09T03:17:25.368Z,315.00
2023-12-09T03:18:25.469Z,315.00
2023-12-09T03:19:25.444Z,315.00
2023-12-09T03:20:25.360Z,315.00
2023-12-09T03:23:25.353Z,315.00
2023-12-09T03:24:25.370Z,315.00
2023-12-09T03:25:25.360Z,315.00
2023-12-09T03:27:25.395Z,315.00
2023-12-09T03:28:25.346Z,315.00
2023-12-09T03:29:25.400Z,315.00
2023-12-09T03:30:25.383Z,315.00
2023-12-09T03:32:25.885Z,293.07
2023-12-09T03:33:25.507Z,225.00
2023-12-09T03:34:25.415Z,225.00
2023-12-09T03:35:25.347Z,225.00
2023-12-09T03:38:25.341Z,315.00
2023-12-09T03:39:25.408Z,315.00
2023-12-09T03:40:25.364Z,315.00
2023-12-09T03:42:25.793Z,315.00
2023-12-09T03:43:25.371Z,315.00
2023-12-09T03:44:25.392Z,315.00
2023-12-09T03:45:25.383Z,315.00
2023-12-09T03:47:29.336Z,315.00
2023-12-09T03:48:25.569Z,315.00
2023-12-09T03:49:25.448Z,315.00
2023-12-09T03:50:25.390Z,315.00
2023-12-09T03:53:25.361Z,313.74
2023-12-09T03:54:25.418Z,315.00
2023-12-09T03:55:25.368Z,315.00
2023-12-09T03:58:25.410Z,298.32
2023-12-09T03:59:25.384Z,304.29
2023-12-09T04:00:25.427Z,285.10
2023-12-09T04:01:25.436Z,315.00
2023-12-09T04:04:25.500Z,315.00
2023-12-09T04:05:25.384Z,315.00
2023-12-09T04:06:25.418Z,315.00
2023-12-09T04:08:25.390Z,315.00
2023-12-09T04:09:25.503Z,315.00
2023-12-09T04:10:25.424Z,315.00
2023-12-09T04:11:25.384Z,315.00
2023-12-09T04:13:25.373Z,315.00
2023-12-09T04:14:25.383Z,315.00
2023-12-09T04:15:25.478Z,315.00
2023-12-09T04:16:25.404Z,315.00
2023-12-09T04:18:25.546Z,315.00
2023-12-09T04:19:25.598Z,324.82
2023-12-09T04:20:25.523Z,315.00
2023-12-09T04:21:25.421Z,315.00
2023-12-09T04:23:25.417Z,315.00
2023-12-09T04:24:25.425Z,315.00
2023-12-09T04:25:25.400Z,319.94
2023-12-09T04:26:25.407Z,315.00
2023-12-09T04:28:25.395Z,315.00
2023-12-09T04:29:25.411Z,315.00
2023-12-09T04:30:25.454Z,315.00
2023-12-09T04:31:25.422Z,315.00
2023-12-09T04:33:25.492Z,315.00
2023-12-09T04:34:25.463Z,315.00
2023-12-09T04:35:25.421Z,332.62
2023-12-09T04:36:25.519Z,315.00
2023-12-09T04:39:25.531Z,315.00
2023-12-09T04:40:25.429Z,315.00
2023-12-09T04:41:25.429Z,315.00
2023-12-09T04:42:25.876Z,315.00
2023-12-09T04:44:25.420Z,307.41
2023-12-09T04:45:25.479Z,17.49
2023-12-09T04:46:25.444Z,46.47
2023-12-09T04:47:25.496Z,315.00
2023-12-09T04:49:25.576Z,315.00
2023-12-09T04:50:25.461Z,315.00
2023-12-09T04:51:25.524Z,323.79
2023-12-09T04:52:25.779Z,315.00
2023-12-09T04:54:25.466Z,315.00
2023-12-09T04:55:25.414Z,315.00
2023-12-09T04:56:25.459Z,315.00
2023-12-09T04:57:25.480Z,331.08
2023-12-09T04:59:25.433Z,315.00
2023-12-09T05:00:25.470Z,315.00
2023-12-09T05:01:25.528Z,315.00
2023-12-09T05:02:25.772Z,315.00
2023-12-09T05:05:25.492Z,338.64
2023-12-09T05:06:25.477Z,315.00
2023-12-09T05:07:25.475Z,315.00
2023-12-09T05:10:25.458Z,256.05
2023-12-09T05:11:25.434Z,225.00
2023-12-09T05:12:25.689Z,308.58
2023-12-09T05:15:25.533Z,315.00
2023-12-09T05:16:25.484Z,315.00
2023-12-09T05:17:25.461Z,315.00
2023-12-09T05:18:25.587Z,326.88
2023-12-09T05:21:35.116Z,315.00
2023-12-09T05:22:25.836Z,315.00
2023-12-09T05:23:25.464Z,315.00
2023-12-09T05:24:25.509Z,315.00
2023-12-09T05:27:25.528Z,315.00
2023-12-09T05:28:25.441Z,332.37
2023-12-09T05:29:25.494Z,46.27
2023-12-09T05:32:25.787Z,345.67
2023-12-09T05:33:25.611Z,315.00
2023-12-09T05:34:25.523Z,315.00
2023-12-09T05:37:01.086Z,357.26
2023-12-09T05:38:01.102Z,323.93
2023-12-09T05:39:01.074Z,0.00
2023-12-09T05:40:01.069Z,0.00
2023-12-09T05:41:01.085Z,335.09
2023-12-09T05:42:01.096Z,315.00
2023-12-09T05:43:01.092Z,315.00
2023-12-09T05:44:01.066Z,315.00
2023-12-09T05:45:01.169Z,315.00
2023-12-09T05:46:03.713Z,312.62
2023-12-09T05:47:01.105Z,315.00
2023-12-09T05:48:01.197Z,315.00
2023-12-09T05:49:01.154Z,315.00
2023-12-09T05:50:01.105Z,315.00
2023-12-09T05:51:01.141Z,315.00
2023-12-09T05:52:01.112Z,315.00
2023-12-09T05:53:02.510Z,315.00
2023-12-09T05:54:01.067Z,315.00
2023-12-09T05:55:01.099Z,308.84
2023-12-09T05:56:01.132Z,315.00
2023-12-09T05:57:01.156Z,315.00
2023-12-09T05:58:01.090Z,315.00
2023-12-09T05:59:01.094Z,90.00
2023-12-09T06:00:01.178Z,352.44
2023-12-09T06:01:01.346Z,321.54
2023-12-09T06:02:01.094Z,315.00
2023-12-09T06:03:01.097Z,316.20
2023-12-09T06:04:01.136Z,315.00
2023-12-09T06:05:01.083Z,315.00
2023-12-09T06:06:01.182Z,315.00
2023-12-09T06:07:01.206Z,315.00
2023-12-09T06:08:01.074Z,315.00
2023-12-09T06:09:01.176Z,315.00
2023-12-09T06:10:01.073Z,318.09
2023-12-09T06:11:01.144Z,315.00
2023-12-09T06:12:01.121Z,326.04
2023-12-09T06:13:01.284Z,345.45
2023-12-09T06:14:01.267Z,315.00
2023-12-09T06:15:01.399Z,301.37
2023-12-09T06:16:01.317Z,315.00
2023-12-09T06:17:01.292Z,324.25
2023-12-09T06:18:01.400Z,325.13
2023-12-09T06:19:01.338Z,317.53
2023-12-09T06:20:01.352Z,322.20
2023-12-09T06:21:01.377Z,326.65
2023-12-09T06:22:01.345Z,237.45
2023-12-09T06:23:01.405Z,322.95
2023-12-09T06:24:01.359Z,328.36
2023-12-09T06:25:01.413Z,315.00
2023-12-09T06:26:01.421Z,315.00
2023-12-09T06:27:01.424Z,315.00
2023-12-09T06:28:01.409Z,315.00
2023-12-09T06:29:01.453Z,315.00
2023-12-09T06:30:01.538Z,319.39
2023-12-09T06:31:01.537Z,315.00
2023-12-09T06:32:01.524Z,315.00
2023-12-09T06:33:01.589Z,315.00
2023-12-09T06:34:01.544Z,315.00
2023-12-09T06:35:01.520Z,315.00
2023-12-09T06:36:01.566Z,315.00
2023-12-09T06:37:01.599Z,321.56
2023-12-09T06:38:01.580Z,324.28
2023-12-09T06:39:03.267Z,326.77
2023-12-09T06:40:01.532Z,315.00
2023-12-09T06:41:01.570Z,315.00
2023-12-09T06:42:01.637Z,329.81
2023-12-09T06:43:01.564Z,225.00
2023-12-09T06:44:01.550Z,309.98
2023-12-09T06:45:01.595Z,315.00
2023-12-09T06:46:01.540Z,325.42
2023-12-09T06:47:01.702Z,319.84
2023-12-09T06:48:01.689Z,307.18
2023-12-09T06:49:04.017Z,315.00
2023-12-09T06:50:01.584Z,315.00
2023-12-09T06:51:01.603Z,311.01
2023-12-09T06:52:01.617Z,315.00
2023-12-09T06:53:01.533Z,315.00
2023-12-09T06:54:01.622Z,321.10
2023-12-09T06:55:01.543Z,306.52
2023-12-09T06:56:01.538Z,306.82
2023-12-09T06:57:01.613Z,315.00
2023-12-09T06:58:01.551Z,275.68
2023-12-09T06:59:01.577Z,225.00
2023-12-09T07:00:01.611Z,225.00
2023-12-09T07:01:01.638Z,225.00
2023-12-09T07:02:01.580Z,296.01
2023-12-09T07:03:01.961Z,315.00
2023-12-09T07:04:01.726Z,315.00
2023-12-09T07:05:01.626Z,315.00
2023-12-09T07:06:01.599Z,315.00
2023-12-09T07:07:01.599Z,315.00
2023-12-09T07:08:01.578Z,315.00
2023-12-09T07:09:01.584Z,349.15
2023-12-09T07:10:01.578Z,345.59
2023-12-09T07:11:01.574Z,315.00
2023-12-09T07:12:02.799Z,320.71
2023-12-09T07:13:01.589Z,317.30
2023-12-09T07:14:01.575Z,315.00
2023-12-09T07:15:01.602Z,317.59
2023-12-09T07:16:01.558Z,315.00
2023-12-09T07:17:01.596Z,315.00
2023-12-09T07:18:01.985Z,315.00
2023-12-09T07:19:01.879Z,315.00
2023-12-09T07:20:01.691Z,315.00
2023-12-09T07:21:01.643Z,316.98
2023-12-09T07:22:01.661Z,314.32
2023-12-09T07:23:01.662Z,295.90
2023-12-09T07:24:01.662Z,315.00
2023-12-09T07:25:01.683Z,315.00
2023-12-09T07:26:01.685Z,315.00
2023-12-09T07:27:01.747Z,320.55
2023-12-09T07:28:01.727Z,317.52
2023-12-09T07:29:01.732Z,332.31
2023-12-09T07:30:01.986Z,315.00
2023-12-09T07:31:01.766Z,315.00
2023-12-09T07:32:01.769Z,315.00
2023-12-09T07:33:01.883Z,320.68
2023-12-09T07:34:01.936Z,315.00
2023-12-09T07:35:01.884Z,331.79
2023-12-09T07:36:01.979Z,336.10
2023-12-09T07:37:01.795Z,315.00
2023-12-09T07:38:01.819Z,315.00
2023-12-09T07:39:02.119Z,315.00
2023-12-09T07:40:01.867Z,351.32
2023-12-09T07:41:01.876Z,240.03
2023-12-09T07:42:01.894Z,225.00
2023-12-09T07:43:01.903Z,225.00
2023-12-09T07:44:01.959Z,225.00
2023-12-09T07:45:02.008Z,235.99
2023-12-09T07:46:01.920Z,310.87
2023-12-09T07:47:01.919Z,315.00
2023-12-09T07:48:02.030Z,315.00
2023-12-09T07:49:02.056Z,315.00
2023-12-09T07:50:02.046Z,315.00
2023-12-09T07:51:02.055Z,315.00
2023-12-09T07:52:02.003Z,315.00
2023-12-09T07:53:02.017Z,315.00
2023-12-09T07:54:02.074Z,315.00
2023-12-09T07:55:02.043Z,312.74
2023-12-09T07:56:02.079Z,315.00
2023-12-09T07:57:02.072Z,316.34
2023-12-09T07:58:02.092Z,315.00
2023-12-09T07:59:02.065Z,315.00
2023-12-09T08:00:02.147Z,315.00
2023-12-09T08:01:02.250Z,315.00
2023-12-09T08:02:02.110Z,315.00
2023-12-09T08:03:02.121Z,315.00
2023-12-09T08:04:02.248Z,315.00
2023-12-09T08:05:02.226Z,315.00
2023-12-09T08:06:02.253Z,315.00
2023-12-09T08:07:02.183Z,315.00
2023-12-09T08:08:02.203Z,315.00
2023-12-09T08:09:02.226Z,315.00
2023-12-09T08:10:02.264Z,311.60
2023-12-09T08:11:02.269Z,289.38
2023-12-09T08:12:02.241Z,315.00
2023-12-09T08:13:02.238Z,315.00
2023-12-09T08:14:02.279Z,315.00
2023-12-09T08:15:02.310Z,315.00
2023-12-09T08:16:02.309Z,301.75
2023-12-09T08:17:02.293Z,315.00
2023-12-09T08:18:02.498Z,315.00
2023-12-09T08:19:02.419Z,315.00
2023-12-09T08:20:02.338Z,315.00
2023-12-09T08:21:02.380Z,315.00
2023-12-09T08:22:02.416Z,315.00
2023-12-09T08:23:02.367Z,315.00
2023-12-09T08:24:02.445Z,315.00
2023-12-09T08:25:02.415Z,315.00
2023-12-09T08:26:02.442Z,326.02
2023-12-09T08:27:02.552Z,315.00
2023-12-09T08:28:02.437Z,315.00
2023-12-09T08:29:02.437Z,315.00
2023-12-09T08:30:02.512Z,315.00
2023-12-09T08:31:02.488Z,301.42
2023-12-09T08:32:02.485Z,258.52
2023-12-09T08:33:02.604Z,315.00
2023-12-09T08:34:02.541Z,344.17
2023-12-09T08:35:09.132Z,349.43
2023-12-09T08:36:02.626Z,315.00
2023-12-09T08:37:02.495Z,315.00
2023-12-09T08:38:02.584Z,315.00
2023-12-09T08:39:02.601Z,315.00
2023-12-09T08:40:02.541Z,308.81
2023-12-09T08:41:02.570Z,135.00
2023-12-09T08:42:02.564Z,315.00
2023-12-09T08:43:02.527Z,315.00
2023-12-09T08:44:02.528Z,315.00
2023-12-09T08:45:02.563Z,315.00
2023-12-09T08:46:02.485Z,315.00
2023-12-09T08:47:02.513Z,315.00
2023-12-09T08:48:02.714Z,315.00
2023-12-09T08:49:02.628Z,315.00
2023-12-09T08:50:02.806Z,315.00
2023-12-09T08:51:02.557Z,307.12
2023-12-09T08:52:02.526Z,315.00
2023-12-09T08:53:02.552Z,315.00
2023-12-09T08:54:02.609Z,315.00
2023-12-09T08:55:02.511Z,315.00
2023-12-09T08:56:02.593Z,315.00
2023-12-09T08:57:02.635Z,315.00
2023-12-09T08:58:02.605Z,307.84
2023-12-09T08:59:02.530Z,315.00
2023-12-09T09:00:02.546Z,309.80
2023-12-09T09:01:02.654Z,353.46
2023-12-09T09:02:02.583Z,315.00
2023-12-09T09:03:02.617Z,315.00
2023-12-09T09:04:02.674Z,310.13
2023-12-09T09:05:02.616Z,315.00
2023-12-09T09:06:02.681Z,315.00
2023-12-09T09:07:02.572Z,279.70
2023-12-09T09:08:02.593Z,315.00
2023-12-09T09:09:02.612Z,315.00
2023-12-09T09:10:02.577Z,315.00
2023-12-09T09:11:02.565Z,263.37
2023-12-09T09:12:02.592Z,268.88
2023-12-09T09:13:02.570Z,315.00
2023-12-09T09:14:02.530Z,315.00
2023-12-09T09:15:06.058Z,315.00
2023-12-09T09:16:02.623Z,315.00
2023-12-09T09:17:02.533Z,323.29
2023-12-09T09:18:02.650Z,342.35
2023-12-09T09:19:02.612Z,315.00
2023-12-09T09:20:02.522Z,18.92
2023-12-09T09:21:02.569Z,27.09
2023-12-09T09:22:02.527Z,315.00
2023-12-09T09:23:02.633Z,319.24
2023-12-09T09:24:02.632Z,322.02
2023-12-09T09:25:02.801Z,315.00
2023-12-09T09:26:02.545Z,315.00
2023-12-09T09:27:02.651Z,315.00
2023-12-09T09:28:02.599Z,315.00
2023-12-09T09:29:02.602Z,329.61
2023-12-09T09:30:02.698Z,315.00
2023-12-09T09:31:02.536Z,315.00
2023-12-09T09:32:02.599Z,315.00
2023-12-09T09:33:02.802Z,315.00
2023-12-09T09:34:02.738Z,315.00
2023-12-09T09:35:02.614Z,315.00
2023-12-09T09:36:02.648Z,315.00
2023-12-09T09:37:02.583Z,308.37
2023-12-09T09:38:02.858Z,308.94
2023-12-09T09:39:02.670Z,284.92
2023-12-09T09:40:02.598Z,315.00
2023-12-09T09:41:02.563Z,325.91
2023-12-09T09:42:02.584Z,315.00
2023-12-09T09:43:02.572Z,315.00
2023-12-09T09:44:02.604Z,247.62
2023-12-09T09:45:02.653Z,278.28
2023-12-09T09:46:02.616Z,315.00
2023-12-09T09:47:02.595Z,315.00
2023-12-09T09:48:02.747Z,315.00
2023-12-09T09:49:02.652Z,305.21
2023-12-09T09:50:02.659Z,315.00
2023-12-09T09:51:02.626Z,315.00
2023-12-09T09:52:02.586Z,315.00
2023-12-09T09:53:02.581Z,11.57
2023-12-09T09:54:02.659Z,315.00
2023-12-09T09:55:02.644Z,315.00
2023-12-09T09:56:02.597Z,315.00
2023-12-09T09:57:02.638Z,315.00
2023-12-09T09:58:02.572Z,312.71
2023-12-09T09:59:02.648Z,315.00
2023-12-09T10:00:02.643Z,315.00
2023-12-09T10:01:02.726Z,15.07
2023-12-09T10:02:02.577Z,336.26
2023-12-09T10:03:04.455Z,296.28
2023-12-09T10:04:02.796Z,293.00
2023-12-09T10:05:02.598Z,315.00
2023-12-09T10:06:02.655Z,315.00
2023-12-09T10:07:02.691Z,315.00
2023-12-09T10:08:02.627Z,315.00
2023-12-09T10:09:02.710Z,316.26
2023-12-09T10:10:02.622Z,318.96
2023-12-09T10:11:02.628Z,316.66
2023-12-09T10:12:02.674Z,315.00
2023-12-09T10:13:02.635Z,315.00
2023-12-09T10:14:02.638Z,315.00
2023-12-09T10:15:02.615Z,309.61
2023-12-09T10:16:02.652Z,318.95
2023-12-09T10:17:02.615Z,225.00
2023-12-09T10:18:02.802Z,269.35
2023-12-09T10:19:02.757Z,341.25
2023-12-09T10:20:02.657Z,315.00
2023-12-09T10:21:02.652Z,292.26
2023-12-09T10:22:02.619Z,315.90
2023-12-09T10:23:02.607Z,291.13
2023-12-09T10:24:02.702Z,326.87
2023-12-09T10:25:02.711Z,315.00
2023-12-09T10:26:02.645Z,315.00
2023-12-09T10:27:02.668Z,277.50
2023-12-09T10:28:02.644Z,290.24
2023-12-09T10:29:02.629Z,341.28
2023-12-09T10:30:02.723Z,304.70
2023-12-09T10:31:02.672Z,296.01
2023-12-09T10:32:02.601Z,315.00
2023-12-09T10:33:02.747Z,315.00
2023-12-09T10:34:02.674Z,315.00
2023-12-09T10:35:05.425Z,315.00
2023-12-09T10:36:02.673Z,308.98
2023-12-09T10:37:02.761Z,315.00
2023-12-09T10:38:02.660Z,315.00
2023-12-09T10:39:02.656Z,315.00
2023-12-09T10:40:02.676Z,311.50
2023-12-09T10:41:02.646Z,264.73
2023-12-09T10:42:02.677Z,315.00
2023-12-09T10:43:02.696Z,315.00
2023-12-09T10:44:02.636Z,315.00
2023-12-09T10:45:02.666Z,316.58
2023-12-09T10:46:02.629Z,315.00
2023-12-09T10:47:02.687Z,315.00
2023-12-09T10:48:02.792Z,234.78
2023-12-09T10:49:02.790Z,313.56
2023-12-09T10:50:02.652Z,311.70
2023-12-09T10:51:02.654Z,351.94
2023-12-09T10:52:02.700Z,310.20
2023-12-09T10:53:02.656Z,315.00
2023-12-09T10:54:02.732Z,312.08
2023-12-09T10:55:02.714Z,315.00
2023-12-09T10:56:02.670Z,316.04
2023-12-09T10:57:02.701Z,325.91
2023-12-09T10:58:02.695Z,315.00
2023-12-09T10:59:02.682Z,324.69
2023-12-09T11:00:02.777Z,326.07
2023-12-09T11:01:02.698Z,319.51
2023-12-09T11:02:03.004Z,316.32
2023-12-09T11:03:02.681Z,342.18
2023-12-09T11:04:02.809Z,332.53
2023-12-09T11:05:02.971Z,11.87
2023-12-09T11:06:02.742Z,314.17
2023-12-09T11:07:02.652Z,291.48
2023-12-09T11:08:02.670Z,291.41
2023-12-09T11:09:02.719Z,327.65
2023-12-09T11:10:02.911Z,341.28
2023-12-09T11:11:02.663Z,305.09
2023-12-09T11:12:02.697Z,245.48
2023-12-09T11:13:02.650Z,333.32
2023-12-09T11:14:02.686Z,318.53
2023-12-09T11:15:02.738Z,316.09
2023-12-09T11:16:02.732Z,320.69
2023-12-09T11:17:02.689Z,331.38
2023-12-09T11:18:02.864Z,315.00
2023-12-09T11:19:02.912Z,326.13
2023-12-09T11:20:02.821Z,315.00
2023-12-09T11:21:02.708Z,317.92
2023-12-09T11:22:02.709Z,329.92
2023-12-09T11:23:02.706Z,321.92
2023-12-09T11:24:02.713Z,347.34
2023-12-09T11:25:02.747Z,308.80
2023-12-09T11:26:02.734Z,324.89
2023-12-09T11:27:02.713Z,318.70
2023-12-09T11:28:02.690Z,326.51
2023-12-09T11:29:02.677Z,345.00
2023-12-09T11:30:02.764Z,331.24
2023-12-09T11:31:02.712Z,315.30
2023-12-09T11:32:02.708Z,311.56
2023-12-09T11:33:02.822Z,273.68
2023-12-09T11:34:02.761Z,318.54
2023-12-09T11:35:02.682Z,315.92
2023-12-09T11:36:03.084Z,324.33
2023-12-09T11:37:02.705Z,312.54
2023-12-09T11:38:02.664Z,353.42
2023-12-09T11:39:02.686Z,316.73
2023-12-09T11:40:02.703Z,343.09
2023-12-09T11:41:02.707Z,315.00
2023-12-09T11:42:02.711Z,298.36
2023-12-09T11:43:02.685Z,336.30
2023-12-09T11:44:02.675Z,310.62
2023-12-09T11:45:02.774Z,337.06
2023-12-09T11:46:02.692Z,351.08
2023-12-09T11:47:02.708Z,343.33
2023-12-09T11:48:02.885Z,342.10
2023-12-09T11:49:02.851Z,299.29
2023-12-09T11:50:02.795Z,315.85
2023-12-09T11:51:02.763Z,315.00
2023-12-09T11:52:02.679Z,306.20
2023-12-09T11:53:02.735Z,332.30
2023-12-09T11:54:02.742Z,314.07
2023-12-09T11:55:02.751Z,315.82
2023-12-09T11:56:02.738Z,53.16
2023-12-09T11:57:02.750Z,344.34
2023-12-09T11:58:02.720Z,321.46
2023-12-09T11:59:02.734Z,338.78
2023-12-09T12:00:03.720Z,321.33
2023-12-09T12:01:02.794Z,315.00
2023-12-09T12:02:02.712Z,319.88
2023-12-09T12:03:02.774Z,315.00
2023-12-09T12:04:02.770Z,313.53
2023-12-09T12:05:02.738Z,255.61
2023-12-09T12:06:02.819Z,315.00
2023-12-09T12:07:02.745Z,297.60
2023-12-09T12:08:02.735Z,327.98
2023-12-09T12:09:02.821Z,278.37
2023-12-09T12:10:02.862Z,315.00
2023-12-09T12:11:02.740Z,321.88
2023-12-09T12:12:02.811Z,315.00
2023-12-09T12:13:02.775Z,314.16
2023-12-09T12:14:02.797Z,315.00
2023-12-09T12:15:02.795Z,315.00
2023-12-09T12:16:02.864Z,315.00
2023-12-09T12:17:02.797Z,322.12
2023-12-09T12:18:02.965Z,323.93
2023-12-09T12:19:03.081Z,337.93
2023-12-09T12:20:02.843Z,315.00
2023-12-09T12:21:02.931Z,313.94
2023-12-09T12:22:02.879Z,336.04
2023-12-09T12:23:02.843Z,315.00
2023-12-09T12:24:02.892Z,313.85
2023-12-09T12:25:02.916Z,311.37
2023-12-09T12:26:02.953Z,315.00
2023-12-09T12:27:03.002Z,307.79
2023-12-09T12:28:02.942Z,278.95
2023-12-09T12:29:02.932Z,313.46
2023-12-09T12:30:03.008Z,317.11
2023-12-09T12:31:02.995Z,343.30
2023-12-09T12:32:03.004Z,334.49
2023-12-09T12:33:03.010Z,315.00
2023-12-09T12:34:03.071Z,315.67
2023-12-09T12:35:03.049Z,315.00
2023-12-09T12:36:03.274Z,312.20
2023-12-09T12:37:03.055Z,264.04
2023-12-09T12:38:03.020Z,260.24
2023-12-09T12:39:03.108Z,292.31
2023-12-09T12:40:03.168Z,355.57
2023-12-09T12:41:03.070Z,315.00
2023-12-09T12:42:03.124Z,315.00
2023-12-09T12:43:03.151Z,318.13
2023-12-09T12:44:03.119Z,315.28
2023-12-09T12:45:03.212Z,352.02
2023-12-09T12:46:03.168Z,334.83
2023-12-09T12:47:03.168Z,253.68
2023-12-09T12:48:03.278Z,315.00
2023-12-09T12:49:03.332Z,315.00
2023-12-09T12:50:03.222Z,322.63
2023-12-09T12:51:03.230Z,344.82
2023-12-09T12:52:03.237Z,315.00
2023-12-09T12:53:03.246Z,315.00
2023-12-09T12:54:03.389Z,341.67
2023-12-09T12:55:03.251Z,321.68
2023-12-09T12:56:03.300Z,315.00
2023-12-09T12:57:03.398Z,315.01
2023-12-09T12:58:03.347Z,315.00
2023-12-09T12:59:03.381Z,315.00
2023-12-09T13:00:07.791Z,315.00
2023-12-09T13:01:03.388Z,315.00
2023-12-09T13:02:03.367Z,315.00
2023-12-09T13:03:03.374Z,270.28
2023-12-09T13:04:03.423Z,319.42
2023-12-09T13:05:03.360Z,240.91
2023-12-09T13:06:03.412Z,129.87
2023-12-09T13:07:03.437Z,315.00
2023-12-09T13:08:03.323Z,315.00
2023-12-09T13:09:03.425Z,358.58
2023-12-09T13:10:03.309Z,333.19
2023-12-09T13:11:03.322Z,326.07
2023-12-09T13:12:03.393Z,315.00
2023-12-09T13:13:03.341Z,325.37
2023-12-09T13:14:03.396Z,325.59
2023-12-09T13:15:03.426Z,315.00
2023-12-09T13:16:03.347Z,320.26
2023-12-09T13:17:03.339Z,316.35
2023-12-09T13:18:03.600Z,328.30
2023-12-09T13:19:03.452Z,324.83
2023-12-09T13:20:03.398Z,315.00
2023-12-09T13:21:03.371Z,322.10
2023-12-09T13:22:03.322Z,315.00
2023-12-09T13:23:03.356Z,344.38
2023-12-09T13:24:03.426Z,330.69
2023-12-09T13:25:06.359Z,335.41